Time;durP1;ratioP1;P1;durP2;ratioP2;P2;SDS_P1;SDS_P2;PMS_P1;PMS_P2;Temp;Humidity;BMP_temperature;BMP_pressure;BME280_temperature;BME280_humidity;BME280_pressure;Samples;Min_cycle;Max_cycle;Signal;HPM_P1;HPM_P2
2021/01/16 00:00:15;;;;;;;20.58;11.85;;;;;;;-2.69;63.22;94421.19;4128436;28;20054;-69
2021/01/16 00:02:16;;;;;;;22.27;12.73;;;;;;;-3.07;64.34;94415.63;4129579;28;20499;-71
2021/01/16 00:04:17;;;;;;;24.58;13.15;;;;;;;-3.11;65.05;94420.06;4127803;28;20129;-71
2021/01/16 00:06:28;;;;;;;22.00;11.57;;;;;;;-2.84;64.92;94416.88;4126585;28;20054;-69
2021/01/16 00:08:29;;;;;;;16.83;10.85;;;;;;;-2.54;63.57;94424.63;4134254;28;20055;-71
2021/01/16 00:10:32;;;;;;;16.02;10.00;;;;;;;-2.29;62.45;94418.06;4128108;28;20115;-70
2021/01/16 00:12:33;;;;;;;15.85;10.55;;;;;;;-2.10;61.86;94413.53;4116254;28;20054;-69
2021/01/16 00:14:34;;;;;;;17.95;10.57;;;;;;;-1.92;61.49;94413.34;4135603;28;20133;-69
2021/01/16 00:16:35;;;;;;;11.48;8.75;;;;;;;-1.86;60.80;94418.13;4116679;28;20242;-71
2021/01/16 00:18:37;;;;;;;12.80;8.98;;;;;;;-1.78;59.73;94405.66;4139377;28;20082;-70
2021/01/16 00:20:40;;;;;;;15.35;9.57;;;;;;;-1.71;59.16;94399.22;4118379;28;20547;-70
2021/01/16 00:22:49;;;;;;;16.55;9.75;;;;;;;-1.67;58.84;94390.44;4130347;28;20078;-70
2021/01/16 00:24:50;;;;;;;13.68;8.65;;;;;;;-1.61;58.84;94396.94;4142238;28;20049;-70
2021/01/16 00:26:51;;;;;;;15.80;9.68;;;;;;;-1.60;59.37;94397.75;4122365;28;20095;-71
2021/01/16 00:28:52;;;;;;;14.65;9.38;;;;;;;-1.58;59.08;94388.22;4116286;28;20047;-69
2021/01/16 00:30:54;;;;;;;15.55;9.93;;;;;;;-1.59;58.64;94386.56;4115446;28;20054;-72
2021/01/16 00:32:58;;;;;;;13.02;8.48;;;;;;;-1.54;58.55;94389.69;4115476;28;20677;-71
2021/01/16 00:35:00;;;;;;;14.70;9.43;;;;;;;-1.49;58.23;94390.22;4129876;28;20061;-72
2021/01/16 00:37:01;;;;;;;14.38;9.05;;;;;;;-1.47;57.55;94381.50;4122383;28;20120;-82
2021/01/16 00:39:02;;;;;;;13.48;8.80;;;;;;;-1.48;57.82;94376.47;4133080;28;20120;-82
2021/01/16 00:41:04;;;;;;;14.07;8.98;;;;;;;-1.39;57.81;94373.31;4124863;28;20054;-82
2021/01/16 00:43:07;;;;;;;14.48;8.02;;;;;;;-1.39;57.45;94378.47;4131031;28;20531;-84
2021/01/16 00:45:09;;;;;;;11.48;7.63;;;;;;;-1.42;56.55;94376.06;4121776;28;20060;-82
2021/01/16 00:47:10;;;;;;;11.50;7.65;;;;;;;-1.48;56.04;94379.03;4128039;28;20527;-83
2021/01/16 00:49:12;;;;;;;10.82;6.88;;;;;;;-1.48;56.03;94374.72;4122961;28;20050;-80
2021/01/16 00:51:13;;;;;;;9.90;6.57;;;;;;;-1.44;56.00;94375.38;4134104;28;20138;-82
2021/01/16 00:53:14;;;;;;;10.07;6.60;;;;;;;-1.45;55.65;94377.09;4130508;28;20471;-83
2021/01/16 00:55:16;;;;;;;9.52;6.70;;;;;;;-1.51;55.79;94374.88;4121063;28;20379;-81
2021/01/16 00:57:17;;;;;;;10.88;6.85;;;;;;;-1.49;55.85;94377.38;4132770;28;20046;-82
2021/01/16 00:59:19;;;;;;;9.73;7.03;;;;;;;-1.44;55.64;94370.22;4136762;28;20105;-83
2021/01/16 01:01:20;;;;;;;10.85;6.57;;;;;;;-1.46;55.20;94372.06;4130544;28;20051;-85
2021/01/16 01:03:22;;;;;;;11.52;6.82;;;;;;;-1.45;55.26;94373.69;4132953;28;20522;-82
2021/01/16 01:05:24;;;;;;;11.20;6.57;;;;;;;-1.56;55.31;94365.84;4132692;28;20622;-83
2021/01/16 01:07:25;;;;;;;10.68;6.28;;;;;;;-1.55;55.08;94375.19;4128418;28;20224;-70
2021/01/16 01:09:27;;;;;;;9.50;5.10;;;;;;;-1.65;55.09;94380.06;4128753;28;20065;-70
2021/01/16 01:11:28;;;;;;;8.25;5.78;;;;;;;-1.67;55.36;94374.19;4127079;28;20046;-69
2021/01/16 01:13:29;;;;;;;7.35;5.78;;;;;;;-1.57;54.87;94370.16;4128268;28;20048;-70
2021/01/16 01:15:31;;;;;;;9.05;6.07;;;;;;;-1.47;54.45;94365.25;4120798;28;20047;-70
2021/01/16 01:17:32;;;;;;;9.35;5.40;;;;;;;-1.37;54.44;94365.53;4128224;28;20050;-70
2021/01/16 01:19:33;;;;;;;7.10;4.97;;;;;;;-1.46;53.99;94366.91;4123125;28;20043;-70
2021/01/16 01:21:35;;;;;;;7.35;4.88;;;;;;;-1.42;53.83;94365.78;4112110;28;20063;-70
2021/01/16 01:23:37;;;;;;;8.13;5.30;;;;;;;-1.42;53.89;94365.78;4095858;28;20102;-70
2021/01/16 01:25:38;;;;;;;9.52;5.82;;;;;;;-1.46;53.93;94364.34;4113880;28;20427;-71
2021/01/16 01:27:41;;;;;;;7.28;5.05;;;;;;;-1.50;53.90;94371.41;4126895;28;20046;-71
2021/01/16 01:29:42;;;;;;;8.07;5.00;;;;;;;-1.43;54.09;94371.84;4128515;28;20042;-69
2021/01/16 01:31:43;;;;;;;8.50;5.75;;;;;;;-1.37;53.66;94368.09;4126506;28;20485;-71
2021/01/16 01:33:44;;;;;;;6.95;4.93;;;;;;;-1.36;53.09;94370.53;4119835;28;20070;-70
2021/01/16 01:35:46;;;;;;;7.78;5.18;;;;;;;-1.34;53.19;94360.19;4113108;28;20062;-70
2021/01/16 01:37:53;;;;;;;8.73;5.57;;;;;;;-1.33;53.37;94362.66;4121010;28;20483;-69
2021/01/16 01:39:54;;;;;;;9.30;4.63;;;;;;;-1.53;53.06;94352.78;4111942;28;20469;-69
2021/01/16 01:41:55;;;;;;;7.65;5.15;;;;;;;-1.61;53.84;94358.41;4129100;28;20054;-69
2021/01/16 01:43:57;;;;;;;6.70;4.63;;;;;;;-1.74;54.72;94360.06;4135669;28;20416;-70
2021/01/16 01:45:58;;;;;;;6.82;4.60;;;;;;;-1.70;54.24;94349.53;4112144;28;20062;-69
2021/01/16 01:48:01;;;;;;;7.70;5.60;;;;;;;-1.83;55.12;94352.91;4121004;28;20141;-71
2021/01/16 01:50:05;;;;;;;8.88;5.30;;;;;;;-1.74;55.11;94360.91;4119913;28;20057;-82
2021/01/16 01:52:06;;;;;;;;;;;;;;;-1.67;54.50;94348.50;4154411;28;20544;-82
2021/01/16 01:54:07;;;;;;;8.63;5.68;;;;;;;-1.58;54.44;94342.81;4133934;28;19984;-80
2021/01/16 01:56:09;;;;;;;9.50;4.88;;;;;;;-1.51;53.67;94340.66;4132437;28;20097;-80
2021/01/16 01:58:12;;;;;;;8.13;5.70;;;;;;;-1.45;53.26;94337.72;4130962;28;20061;-82
2021/01/16 02:00:14;;;;;;;7.85;5.55;;;;;;;-1.48;53.34;94338.75;4128997;28;20499;-81
2021/01/16 02:02:15;;;;;;;9.43;5.97;;;;;;;-1.43;53.53;94338.47;4134845;28;20110;-83
2021/01/16 02:04:18;;;;;;;7.30;5.03;;;;;;;-1.41;53.13;94341.75;4136554;28;20074;-83
2021/01/16 02:06:19;;;;;;;7.60;4.97;;;;;;;-1.46;53.43;94334.34;4124141;28;20488;-84
2021/01/16 02:08:21;;;;;;;9.20;5.53;;;;;;;-1.43;53.75;94335.06;4123872;28;20193;-82
2021/01/16 02:10:24;;;;;;;7.88;4.47;;;;;;;-1.57;53.83;94339.31;4136125;28;20049;-82
2021/01/16 02:12:25;;;;;;;8.20;4.93;;;;;;;-1.49;53.92;94341.41;4131895;28;20046;-79
2021/01/16 02:14:33;;;;;;;7.63;4.72;;;;;;;-1.39;54.06;94339.09;4128778;28;20576;-81
2021/01/16 02:16:42;;;;;;;6.43;5.20;;;;;;;-1.30;53.73;94341.91;4129442;28;20046;-79
2021/01/16 02:18:45;;;;;;;8.32;5.28;;;;;;;-1.27;53.23;94339.16;4115827;28;20709;-82
2021/01/16 02:20:47;;;;;;;10.23;4.68;;;;;;;-1.41;53.37;94343.50;4132327;28;20075;-82
2021/01/16 02:23:04;;;;;;;7.38;4.95;;;;;;;-1.43;53.42;94335.06;4131130;28;20054;-82
2021/01/16 02:25:13;;;;;;;8.43;5.00;;;;;;;-1.53;53.81;94345.06;4130238;28;20057;-81
2021/01/16 02:27:35;;;;;;;6.63;4.45;;;;;;;-1.56;53.92;94342.72;4130651;28;20489;-82
2021/01/16 02:29:38;;;;;;;8.93;5.00;;;;;;;-1.67;53.96;94340.81;4125460;28;20051;-70
2021/01/16 02:31:52;;;;;;;8.57;5.47;;;;;;;-1.63;54.36;94341.41;4118070;28;20201;-68
2021/01/16 02:33:54;;;;;;;10.20;5.30;;;;;;;-1.68;54.68;94340.00;4122919;28;20468;-69
2021/01/16 02:36:16;;;;;;;7.30;5.05;;;;;;;-2.01;55.94;94340.28;4122751;28;20053;-71
2021/01/16 02:38:36;;;;;;;9.93;5.30;;;;;;;-1.99;56.12;94342.75;4127255;28;20066;-71
2021/01/16 02:40:43;;;;;;;7.25;5.28;;;;;;;-1.90;56.39;94353.28;4119244;28;20148;-70
2021/01/16 02:42:44;;;;;;;7.10;5.05;;;;;;;-1.89;57.01;94342.13;4129500;28;20308;-70
2021/01/16 02:44:57;;;;;;;9.10;5.20;;;;;;;-1.86;57.02;94346.22;4129163;28;20046;-70
2021/01/16 02:47:02;;;;;;;7.88;5.50;;;;;;;-1.97;57.52;94338.38;4130045;28;20046;-69
2021/01/16 02:49:28;;;;;;;10.32;6.03;;;;;;;-1.98;58.62;94336.69;4118646;28;20105;-70
2021/01/16 02:51:53;;;;;;;7.25;5.50;;;;;;;-1.98;58.44;94342.69;4115229;28;20138;-71
2021/01/16 02:53:54;;;;;;;8.82;5.70;;;;;;;-2.37;60.31;94338.16;4111419;28;20051;-72
2021/01/16 02:55:57;;;;;;;9.30;5.78;;;;;;;-2.33;60.65;94342.19;4123843;28;20055;-72
2021/01/16 02:57:58;;;;;;;9.20;5.82;;;;;;;-2.15;60.35;94345.41;4114569;28;20509;-70
2021/01/16 02:59:59;;;;;;;9.10;6.18;;;;;;;-2.07;59.65;94343.22;4128719;28;20491;-71
2021/01/16 03:02:03;;;;;;;8.70;5.88;;;;;;;-1.98;59.60;94332.41;4129347;28;20054;-70
2021/01/16 03:04:04;;;;;;;9.07;6.45;;;;;;;-1.89;59.33;94341.28;4129359;28;20085;-71
2021/01/16 03:06:06;;;;;;;8.55;6.15;;;;;;;-1.86;59.84;94339.34;4130767;28;20557;-71
2021/01/16 03:08:08;;;;;;;8.98;6.45;;;;;;;-1.88;60.28;94327.53;4130166;28;20050;-69
2021/01/16 03:10:10;;;;;;;10.43;7.05;;;;;;;-1.85;60.22;94332.47;4128372;28;20413;-70
2021/01/16 03:12:12;;;;;;;10.70;6.97;;;;;;;-1.92;60.75;94341.47;4131617;28;20462;-69
2021/01/16 03:14:13;;;;;;;9.02;6.53;;;;;;;-1.99;61.24;94343.59;4130644;28;20093;-71
2021/01/16 03:16:21;;;;;;;10.60;6.93;;;;;;;-1.97;61.71;94335.78;4128020;28;20396;-69
2021/01/16 03:18:23;;;;;;;10.68;7.63;;;;;;;-1.92;61.28;94344.84;4130357;28;20463;-70
2021/01/16 03:20:29;;;;;;;11.88;7.53;;;;;;;-1.84;60.86;94344.41;4115123;28;20058;-70
2021/01/16 03:22:30;;;;;;;12.32;8.07;;;;;;;-1.94;62.05;94335.59;4129549;28;20051;-70
2021/01/16 03:24:32;;;;;;;11.07;7.65;;;;;;;-1.94;61.97;94331.28;4129833;28;20053;-70
2021/01/16 03:26:33;;;;;;;10.18;7.28;;;;;;;-1.81;61.52;94333.94;4130436;28;20241;-69
2021/01/16 03:28:34;;;;;;;13.60;8.23;;;;;;;-1.82;61.60;94324.59;4129984;28;20057;-70
2021/01/16 03:30:35;;;;;;;13.73;8.02;;;;;;;-1.81;61.43;94326.22;4127179;28;20507;-71
2021/01/16 03:32:37;;;;;;;12.07;8.60;;;;;;;-1.82;61.93;94322.03;4129516;28;20065;-71
2021/01/16 03:34:40;;;;;;;13.60;8.38;;;;;;;-1.80;61.89;94332.22;4128860;28;20054;-71
2021/01/16 03:36:41;;;;;;;10.52;7.80;;;;;;;-1.89;62.26;94338.72;4110153;28;20069;-71
2021/01/16 03:38:42;;;;;;;11.13;7.82;;;;;;;-1.83;61.81;94329.81;4130865;28;20045;-69
2021/01/16 03:40:47;;;;;;;12.10;7.70;;;;;;;-1.77;61.61;94332.81;4132626;28;20503;-83
2021/01/16 03:42:48;;;;;;;14.68;8.68;;;;;;;-1.88;62.21;94336.03;4132863;28;20054;-79
2021/01/16 03:44:49;;;;;;;13.13;7.82;;;;;;;-1.94;61.96;94331.28;4133797;28;20056;-81
2021/01/16 03:46:50;;;;;;;11.85;7.43;;;;;;;-1.96;62.26;94334.88;4131696;28;20047;-82
2021/01/16 03:48:52;;;;;;;10.40;7.32;;;;;;;-2.06;62.54;94332.88;4132044;28;20061;-80
2021/01/16 03:50:53;;;;;;;12.38;8.18;;;;;;;-1.94;62.24;94333.84;4128581;28;20054;-70
2021/01/16 03:52:55;;;;;;;12.35;7.53;;;;;;;-1.96;62.17;94337.44;4127675;28;20054;-70
2021/01/16 03:54:56;;;;;;;11.15;7.45;;;;;;;-1.99;62.64;94329.94;4129219;28;20506;-69
2021/01/16 03:56:58;;;;;;;11.77;7.55;;;;;;;-2.08;62.53;94339.00;4113799;28;20435;-80
2021/01/16 03:58:59;;;;;;;11.52;7.72;;;;;;;-2.18;62.79;94337.91;4133346;28;20089;-81
2021/01/16 04:01:00;;;;;;;14.07;8.15;;;;;;;-2.16;63.18;94338.63;4132373;28;20499;-82
2021/01/16 04:03:02;;;;;;;11.10;8.20;;;;;;;-2.16;63.00;94331.75;4129891;28;20126;-70
2021/01/16 04:05:04;;;;;;;12.75;7.80;;;;;;;-2.13;62.89;94335.88;4128865;28;20467;-70
2021/01/16 04:07:06;;;;;;;11.73;7.55;;;;;;;-2.11;62.66;94339.19;4130168;28;20410;-70
2021/01/16 04:09:07;;;;;;;12.05;7.63;;;;;;;-2.08;62.25;94333.88;4128797;28;20058;-69
2021/01/16 04:11:09;;;;;;;12.43;7.63;;;;;;;-2.18;62.72;94336.16;4129636;28;20058;-69
2021/01/16 04:13:10;;;;;;;11.57;7.70;;;;;;;-2.14;61.96;94334.25;4128539;28;20491;-69
2021/01/16 04:15:12;;;;;;;14.23;7.97;;;;;;;-2.11;61.97;94341.75;4126812;28;20791;-69
2021/01/16 04:17:13;;;;;;;13.57;7.15;;;;;;;-2.33;62.64;94335.31;4119054;28;20043;-69
2021/01/16 04:19:14;;;;;;;12.40;7.40;;;;;;;-2.65;63.59;94333.81;4120404;28;20141;-69
2021/01/16 04:21:16;;;;;;;12.55;8.10;;;;;;;-2.54;63.70;94334.00;4126004;28;20618;-69
2021/01/16 04:23:17;;;;;;;12.90;8.18;;;;;;;-2.62;63.80;94334.47;4129346;28;20538;-81
2021/01/16 04:25:18;;;;;;;13.30;7.80;;;;;;;-2.90;64.70;94333.50;4133017;28;20049;-80
2021/01/16 04:27:19;;;;;;;13.40;8.07;;;;;;;-2.77;64.29;94331.06;4114644;28;20440;-82
2021/01/16 04:29:20;;;;;;;11.93;8.00;;;;;;;-2.63;64.41;94330.25;4130194;28;20050;-82
2021/01/16 04:31:22;;;;;;;14.52;8.95;;;;;;;-2.54;63.35;94329.72;4138567;28;20050;-82
2021/01/16 04:33:23;;;;;;;14.38;8.80;;;;;;;-2.48;63.11;94333.66;4140240;28;20419;-80
2021/01/16 04:35:25;;;;;;;14.55;8.35;;;;;;;-2.36;63.22;94329.56;4125886;28;20496;-80
2021/01/16 04:37:26;;;;;;;12.95;8.32;;;;;;;-2.47;62.57;94340.44;4129697;28;20125;-80
2021/01/16 04:39:27;;;;;;;13.43;9.23;;;;;;;-2.41;63.31;94340.09;4139796;28;20050;-81
2021/01/16 04:41:30;;;;;;;13.63;8.52;;;;;;;-2.34;62.00;94330.31;4137871;28;20077;-81
2021/01/16 04:43:31;;;;;;;11.85;8.30;;;;;;;-2.33;61.50;94345.56;4138984;28;20064;-80
2021/01/16 04:45:33;;;;;;;14.90;8.05;;;;;;;-2.37;61.57;94338.97;4139350;28;20050;-82
2021/01/16 04:47:35;;;;;;;12.35;8.38;;;;;;;-2.50;61.94;94331.19;4139445;28;20065;-82
2021/01/16 04:49:38;;;;;;;14.93;8.43;;;;;;;-2.52;61.69;94340.72;4137144;28;20471;-82
2021/01/16 04:51:43;;;;;;;11.70;7.88;;;;;;;-2.47;61.78;94328.44;4139346;28;20047;-81
2021/01/16 04:53:46;;;;;;;14.85;8.43;;;;;;;-2.52;62.11;94339.88;4133827;28;20081;-82
2021/01/16 04:55:48;;;;;;;14.32;8.20;;;;;;;-2.54;61.91;94334.84;4132190;28;20133;-81
2021/01/16 04:57:49;;;;;;;13.98;8.18;;;;;;;-2.53;61.73;94336.50;4131924;28;20062;-81
2021/01/16 04:59:53;;;;;;;11.73;7.68;;;;;;;-2.52;61.29;94338.16;4131208;28;20050;-82
2021/01/16 05:01:57;;;;;;;15.57;8.35;;;;;;;-2.50;61.89;94345.75;4131601;28;20062;-81
2021/01/16 05:03:58;;;;;;;14.82;9.40;;;;;;;-2.64;61.52;94346.56;4123701;28;20109;-80
2021/01/16 05:06:02;;;;;;;15.48;10.48;;;;;;;-2.62;62.16;94341.34;4125785;28;20052;-83
2021/01/16 05:08:03;;;;;;;15.13;9.53;;;;;;;-2.61;62.39;94353.25;4131234;28;20046;-82
2021/01/16 05:10:07;;;;;;;15.55;8.05;;;;;;;-2.71;61.78;94346.09;4131174;28;20285;-80
2021/01/16 05:12:24;;;;;;;12.60;7.72;;;;;;;-2.62;61.90;94347.28;4132883;28;20050;-82
2021/01/16 05:14:33;;;;;;;11.88;7.88;;;;;;;-2.66;61.91;94353.50;4128056;28;20484;-70
2021/01/16 05:16:45;;;;;;;15.23;8.48;;;;;;;-2.57;61.72;94347.84;4126813;28;20046;-69
2021/01/16 05:18:46;;;;;;;13.38;8.05;;;;;;;-2.63;61.69;94350.75;4129654;28;20436;-69
2021/01/16 05:20:47;;;;;;;12.90;8.25;;;;;;;-2.61;60.98;94346.38;4126986;28;20058;-69
2021/01/16 05:22:48;;;;;;;13.05;8.10;;;;;;;-2.74;61.66;94353.13;4122060;28;20105;-69
2021/01/16 05:24:49;;;;;;;14.50;8.55;;;;;;;-2.84;61.39;94360.50;4124310;28;20390;-69
2021/01/16 05:26:54;;;;;;;14.00;7.78;;;;;;;-2.83;60.88;94357.03;4127618;28;20046;-72
2021/01/16 05:28:55;;;;;;;;;;;;;;;-2.92;62.38;94357.56;4129668;28;20534;-70
2021/01/16 05:31:00;;;;;;;12.98;7.10;;;;;;;-2.83;61.27;94356.22;4126309;28;19947;-70
2021/01/16 05:33:08;;;;;;;11.98;7.22;;;;;;;-2.78;61.72;94356.75;4111515;28;20456;-71
2021/01/16 05:35:27;;;;;;;13.32;8.20;;;;;;;-3.01;62.54;94358.91;4127484;28;20321;-70
2021/01/16 05:37:28;;;;;;;12.60;7.88;;;;;;;-3.00;62.71;94355.41;4127946;28;20671;-71
2021/01/16 05:39:32;;;;;;;13.20;8.23;;;;;;;-2.91;62.71;94351.50;4128242;28;20140;-70
2021/01/16 05:41:33;;;;;;;15.32;8.38;;;;;;;-2.88;61.47;94352.16;4127332;28;20050;-69
2021/01/16 05:43:37;;;;;;;13.18;8.65;;;;;;;-2.92;62.19;94355.81;4137898;28;20058;-70
2021/01/16 05:45:40;;;;;;;13.52;9.25;;;;;;;-2.88;62.27;94347.03;4126783;28;20483;-71
2021/01/16 05:47:43;;;;;;;15.35;9.10;;;;;;;-2.85;61.37;94348.59;4138752;28;20058;-69
2021/01/16 05:49:44;;;;;;;15.25;8.45;;;;;;;-2.81;61.25;94339.00;4135868;28;20042;-70
2021/01/16 05:51:46;;;;;;;12.10;7.45;;;;;;;-2.88;60.61;94346.22;4116259;28;20519;-68
2021/01/16 05:53:48;;;;;;;11.88;7.53;;;;;;;-3.01;61.26;94355.50;4132934;28;20185;-71
2021/01/16 05:55:49;;;;;;;13.02;8.05;;;;;;;-2.94;60.77;94344.81;4128945;28;20405;-71
2021/01/16 05:58:03;;;;;;;11.63;7.82;;;;;;;-2.87;60.82;94350.44;4111787;28;20623;-69
2021/01/16 06:00:07;;;;;;;17.25;8.95;;;;;;;-2.74;59.66;94345.44;4124852;28;20050;-70
2021/01/16 06:02:09;;;;;;;13.32;7.40;;;;;;;-2.91;59.38;94344.63;4128339;28;20043;-70
2021/01/16 06:04:18;;;;;;;13.55;8.25;;;;;;;-2.92;59.92;94339.63;4126714;28;20046;-71
2021/01/16 06:06:19;;;;;;;14.77;8.45;;;;;;;-2.88;60.01;94339.34;4119445;28;20049;-70
2021/01/16 06:08:21;;;;;;;13.68;8.27;;;;;;;-2.83;59.15;94343.41;4126667;28;20046;-71
2021/01/16 06:10:23;;;;;;;14.05;8.68;;;;;;;-2.71;59.35;94340.09;4131242;28;20050;-70
2021/01/16 06:12:24;;;;;;;16.52;8.73;;;;;;;-2.82;58.49;94345.03;4126514;28;20047;-70
2021/01/16 06:14:26;;;;;;;15.52;8.85;;;;;;;-2.70;58.65;94340.03;4119356;28;20042;-70
2021/01/16 06:16:30;;;;;;;13.95;7.85;;;;;;;-2.67;58.13;94351.84;4125676;28;20054;-70
2021/01/16 06:18:35;;;;;;;13.52;8.05;;;;;;;-2.72;57.72;94346.97;4112317;28;20168;-69
2021/01/16 06:20:38;;;;;;;13.73;7.28;;;;;;;-2.69;57.64;94351.09;4130117;28;20499;-69
2021/01/16 06:22:42;;;;;;;15.88;9.13;;;;;;;-2.63;56.90;94339.69;4130046;28;20054;-72
2021/01/16 06:24:46;;;;;;;12.48;7.65;;;;;;;-2.62;56.75;94344.72;4114567;28;20058;-70
2021/01/16 06:26:57;;;;;;;24.40;11.80;;;;;;;-2.52;56.75;94337.31;4129860;28;20494;-71
2021/01/16 06:29:00;;;;;;;16.92;10.32;;;;;;;-2.51;55.96;94341.53;4131798;28;20499;-70
2021/01/16 06:31:01;;;;;;;13.27;7.53;;;;;;;-2.54;55.12;94345.13;4104313;28;20140;-70
2021/01/16 06:33:04;;;;;;;14.68;8.85;;;;;;;-2.57;55.46;94340.16;4125810;28;20058;-72
2021/01/16 06:35:09;;;;;;;12.23;7.75;;;;;;;-2.57;55.70;94347.84;4125081;28;20050;-70
2021/01/16 06:37:15;;;;;;;13.82;7.95;;;;;;;-2.58;55.31;94347.91;4117679;28;20412;-70
2021/01/16 06:39:18;;;;;;;13.23;7.45;;;;;;;-2.58;55.63;94355.63;4131610;28;20055;-70
2021/01/16 06:41:19;;;;;;;13.13;7.38;;;;;;;-2.72;55.87;94353.84;4129544;28;20572;-71
2021/01/16 06:43:23;;;;;;;12.18;7.55;;;;;;;-2.65;55.67;94359.47;4128960;28;20057;-70
2021/01/16 06:45:28;;;;;;;11.10;6.72;;;;;;;-2.55;55.49;94355.47;4122201;28;20046;-71
2021/01/16 06:47:30;;;;;;;11.02;7.18;;;;;;;-2.47;54.32;94361.78;4127459;28;20133;-69
2021/01/16 06:49:33;;;;;;;13.10;7.22;;;;;;;-2.45;53.92;94371.13;4113505;28;20047;-71
2021/01/16 06:51:35;;;;;;;11.02;6.70;;;;;;;-2.47;53.99;94373.78;4131512;28;20347;-70
2021/01/16 06:53:37;;;;;;;11.18;6.88;;;;;;;-2.54;52.88;94378.47;4131818;28;20426;-82
2021/01/16 06:55:46;;;;;;;10.98;6.70;;;;;;;-2.63;52.80;94368.72;4135170;28;20133;-84
2021/01/16 06:57:47;;;;;;;10.88;5.97;;;;;;;-2.61;53.13;94368.63;4134322;28;20562;-80
2021/01/16 06:59:48;;;;;;;11.70;7.03;;;;;;;-2.52;52.94;94374.06;4147217;28;20132;-83
2021/01/16 07:01:50;;;;;;;11.00;6.70;;;;;;;-2.61;52.80;94374.56;4134439;28;20060;-81
2021/01/16 07:04:03;;;;;;;12.60;6.25;;;;;;;-2.65;53.06;94370.53;4134176;28;20128;-80
2021/01/16 07:06:06;;;;;;;10.43;6.22;;;;;;;-2.75;53.38;94374.56;4135707;28;20141;-82
2021/01/16 07:08:09;;;;;;;14.55;6.72;;;;;;;-2.72;52.72;94364.13;4135672;28;20525;-81
2021/01/16 07:10:15;;;;;;;12.03;6.93;;;;;;;-2.75;52.55;94379.69;4139261;28;20090;-82
2021/01/16 07:12:19;;;;;;;12.73;6.78;;;;;;;-2.68;53.50;94373.28;4152592;28;20086;-82
2021/01/16 07:14:22;;;;;;;13.80;7.60;;;;;;;-2.62;52.89;94378.06;4130686;28;20047;-72
2021/01/16 07:16:24;;;;;;;10.30;6.05;;;;;;;-2.63;52.98;94361.00;4125361;28;20408;-71
2021/01/16 07:18:26;;;;;;;13.00;6.47;;;;;;;-2.53;53.37;94372.41;4116537;28;20082;-71
2021/01/16 07:20:28;;;;;;;11.98;7.00;;;;;;;-2.52;53.36;94368.94;4129248;28;20125;-71
2021/01/16 07:22:38;;;;;;;10.55;6.80;;;;;;;-2.55;53.74;94375.97;4113829;28;20070;-71
2021/01/16 07:24:40;;;;;;;12.85;7.03;;;;;;;-2.58;53.75;94376.97;4123235;28;20314;-70
2021/01/16 07:26:45;;;;;;;11.82;7.10;;;;;;;-2.67;55.41;94377.50;4117934;28;20084;-72
2021/01/16 07:28:50;;;;;;;15.52;8.05;;;;;;;-2.66;55.97;94368.91;4115482;28;20050;-71
2021/01/16 07:30:51;;;;;;;16.02;8.40;;;;;;;-2.66;56.19;94370.63;4128487;28;20396;-71
2021/01/16 07:33:02;;;;;;;14.85;8.93;;;;;;;-2.76;57.10;94373.72;4129774;28;20054;-72
2021/01/16 07:35:05;;;;;;;14.63;8.98;;;;;;;-2.76;56.93;94375.44;4121888;28;20404;-70
2021/01/16 07:37:08;;;;;;;17.10;9.07;;;;;;;-2.81;57.31;94373.16;4128979;28;20042;-71
2021/01/16 07:39:10;;;;;;;;;;;;;;;-2.73;57.40;94373.56;4122439;28;20070;-69
2021/01/16 07:41:12;;;;;;;16.25;8.52;;;;;;;-2.64;56.91;94377.31;4123429;28;19929;-71
2021/01/16 07:43:33;;;;;;;15.73;7.60;;;;;;;-2.64;57.14;94379.91;4121095;28;20058;-71
2021/01/16 07:45:39;;;;;;;15.93;8.52;;;;;;;-2.68;57.62;94365.59;4124968;28;20058;-72
2021/01/16 07:47:41;;;;;;;13.20;8.30;;;;;;;-2.54;57.13;94375.03;4127760;28;20054;-70
2021/01/16 07:49:52;;;;;;;15.07;8.57;;;;;;;-2.52;57.27;94375.78;4129228;28;20046;-70
2021/01/16 07:51:55;;;;;;;15.65;8.23;;;;;;;-2.54;57.62;94372.47;4129424;28;20602;-70
2021/01/16 07:54:01;;;;;;;14.77;8.70;;;;;;;-2.42;57.13;94368.41;4128870;28;20046;-71
2021/01/16 07:56:04;;;;;;;15.00;8.50;;;;;;;-2.34;57.04;94367.03;4131013;28;20153;-71
2021/01/16 07:58:33;;;;;;;14.07;8.88;;;;;;;-2.36;57.04;94370.63;4099987;28;20074;-72
2021/01/16 08:00:37;;;;;;;13.25;8.40;;;;;;;-2.51;57.98;94377.44;4125438;28;20597;-71
2021/01/16 08:03:05;;;;;;;14.13;8.60;;;;;;;-2.48;58.54;94367.81;4112706;28;20066;-70
2021/01/16 08:05:16;;;;;;;18.30;9.68;;;;;;;-2.52;58.09;94380.91;4120836;28;20100;-71
2021/01/16 08:07:41;;;;;;;13.77;8.90;;;;;;;-2.44;58.00;94383.88;4129411;28;20514;-71
2021/01/16 08:10:02;;;;;;;17.77;9.82;;;;;;;-2.83;59.27;94387.78;4106390;28;20055;-70
2021/01/16 08:12:11;;;;;;;17.45;8.45;;;;;;;-2.94;60.15;94390.97;4125411;28;20050;-71
2021/01/16 08:14:13;;;;;;;14.68;9.23;;;;;;;-2.84;60.03;94390.44;4127175;28;20069;-70
2021/01/16 08:16:15;;;;;;;14.70;8.95;;;;;;;-2.94;60.71;94410.66;4127493;28;20146;-71
2021/01/16 08:18:19;;;;;;;20.52;9.30;;;;;;;-2.80;60.38;94397.03;4127937;28;20061;-71
2021/01/16 08:20:29;;;;;;;15.70;9.80;;;;;;;-2.93;61.21;94397.72;4126133;28;20043;-73
2021/01/16 08:22:41;;;;;;;14.75;9.55;;;;;;;-2.81;61.66;94387.72;4130638;28;20061;-70
2021/01/16 08:25:01;;;;;;;12.52;8.60;;;;;;;-2.76;61.18;94385.72;4126931;28;20085;-70
2021/01/16 08:27:04;;;;;;;16.08;8.88;;;;;;;-2.76;62.02;94393.41;4121917;28;20050;-71
2021/01/16 08:29:06;;;;;;;17.20;9.55;;;;;;;-2.73;62.68;94399.19;4121122;28;20065;-71
2021/01/16 08:31:07;;;;;;;16.08;9.70;;;;;;;-2.68;62.55;94401.50;4128956;28;20422;-72
2021/01/16 08:33:13;;;;;;;16.80;8.77;;;;;;;-2.73;61.96;94401.75;4129195;28;20058;-72
2021/01/16 08:35:20;;;;;;;14.73;8.75;;;;;;;-2.77;62.06;94404.59;4125152;28;20149;-72
2021/01/16 08:37:30;;;;;;;15.50;9.18;;;;;;;-2.85;62.74;94405.00;4112249;28;20059;-73
2021/01/16 08:39:32;;;;;;;27.65;16.63;;;;;;;-2.91;63.07;94395.91;4105664;28;20051;-73
2021/01/16 08:41:36;;;;;;;14.30;8.73;;;;;;;-2.82;61.94;94416.81;4128053;28;20088;-72
2021/01/16 08:43:42;;;;;;;;;;;;;;;-3.05;61.40;94408.69;4128244;28;20058;-73
2021/01/16 08:45:44;;;;;;;11.23;6.93;;;;;;;-3.23;61.29;94409.66;4126748;28;19948;-72
2021/01/16 08:47:50;;;;;;;13.50;7.50;;;;;;;-3.19;61.17;94411.16;4116507;28;20088;-70
2021/01/16 08:49:51;;;;;;;12.73;7.72;;;;;;;-3.19;61.00;94411.16;4105777;28;20051;-72
2021/01/16 08:51:53;;;;;;;17.27;8.85;;;;;;;-3.10;60.82;94408.94;4121631;28;20065;-71
2021/01/16 08:54:23;;;;;;;17.42;9.85;;;;;;;-3.22;60.08;94406.22;4129192;28;20061;-72
2021/01/16 08:56:25;;;;;;;11.73;7.45;;;;;;;-3.04;60.07;94402.63;4109550;28;20057;-71
2021/01/16 08:58:28;;;;;;;18.20;9.15;;;;;;;-3.21;59.62;94402.72;4128919;28;20083;-71
2021/01/16 09:00:30;;;;;;;13.70;8.13;;;;;;;-3.26;59.08;94399.59;4127315;28;20511;-70
2021/01/16 09:02:32;;;;;;;15.07;7.45;;;;;;;-3.12;59.06;94412.47;4111178;28;20054;-72
2021/01/16 09:04:37;;;;;;;16.17;8.05;;;;;;;-3.03;58.97;94414.53;4129978;28;20062;-70
2021/01/16 09:06:38;;;;;;;12.40;6.93;;;;;;;-3.09;58.15;94394.38;4126386;28;20062;-70
2021/01/16 09:08:46;;;;;;;12.80;7.40;;;;;;;-3.10;57.36;94396.13;4128629;28;20061;-70
2021/01/16 09:11:12;;;;;;;13.52;7.80;;;;;;;-3.20;58.07;94396.72;4128994;28;20089;-73
2021/01/16 09:13:30;;;;;;;15.43;7.85;;;;;;;-3.29;59.07;94392.91;4125098;28;20093;-70
2021/01/16 09:15:39;;;;;;;15.02;7.68;;;;;;;-3.12;58.09;94381.72;4116711;28;20336;-70
2021/01/16 09:18:02;;;;;;;11.18;6.38;;;;;;;-3.10;56.04;94393.56;4129201;28;20057;-72
2021/01/16 09:20:05;;;;;;;14.77;6.55;;;;;;;-3.11;56.61;94381.63;4129173;28;20058;-70
2021/01/16 09:22:26;;;;;;;15.45;8.90;;;;;;;-3.21;57.33;94389.91;4115927;28;20061;-70
2021/01/16 09:24:27;;;;;;;21.02;8.20;;;;;;;-3.94;59.65;94406.56;4127856;28;20050;-70
2021/01/16 09:26:29;;;;;;;23.25;10.38;;;;;;;-4.22;61.58;94383.28;4127745;28;20049;-70
2021/01/16 09:28:44;;;;;;;14.57;8.43;;;;;;;-4.25;61.62;94402.19;4128767;28;20046;-71
2021/01/16 09:30:45;;;;;;;16.13;7.90;;;;;;;-4.44;62.65;94386.13;4120585;28;20054;-83
2021/01/16 09:32:47;;;;;;;16.08;8.13;;;;;;;-4.04;61.61;94381.50;4135253;28;20137;-82
2021/01/16 09:34:48;;;;;;;14.32;7.80;;;;;;;-3.75;59.44;94385.94;4134959;28;20503;-83
2021/01/16 09:36:55;;;;;;;15.27;7.35;;;;;;;-3.52;58.46;94374.47;4135568;28;20049;-81
2021/01/16 09:38:57;;;;;;;13.75;6.93;;;;;;;-3.51;57.97;94375.28;4137574;28;20050;-82